createdAt,value
2022-09-03T00:00:37.942Z,26.52
2022-09-03T00:03:16.873Z,16.60
2022-09-03T00:05:53.749Z,13.18
2022-09-03T00:08:26.637Z,13.45
2022-09-03T00:10:56.612Z,5.18
2022-09-03T00:13:46.705Z,9.45
2022-09-03T00:16:19.459Z,14.23
2022-09-03T00:19:00.474Z,16.65
2022-09-03T00:21:41.033Z,13.50
2022-09-03T00:24:14.356Z,16.65
2022-09-03T00:26:46.651Z,14.80
2022-09-03T00:29:16.622Z,10.65
2022-09-03T00:31:48.780Z,13.13
2022-09-03T00:34:24.301Z,12.55
2022-09-03T00:36:54.396Z,14.68
2022-09-03T00:39:26.354Z,7.20
2022-09-03T00:42:14.571Z,10.68
2022-09-03T00:45:00.261Z,15.00
2022-09-03T00:47:50.492Z,7.75
2022-09-03T00:50:20.543Z,10.23
2022-09-03T00:52:54.734Z,18.25
2022-09-03T00:55:28.879Z,22.45
2022-09-03T00:57:58.913Z,7.55
2022-09-03T01:00:30.401Z,16.48
2022-09-03T01:03:03.915Z,17.25
2022-09-03T01:05:44.282Z,20.08
2022-09-03T01:08:33.416Z,14.65
2022-09-03T01:11:21.871Z,13.40
2022-09-03T01:13:51.893Z,15.25
2022-09-03T01:16:24.731Z,8.88
2022-09-03T01:19:06.958Z,9.98
2022-09-03T01:21:40.075Z,9.43
2022-09-03T01:24:32.959Z,11.77
2022-09-03T01:27:12.410Z,20.33
2022-09-03T01:29:45.552Z,6.82
2022-09-03T01:32:18.037Z,8.35
2022-09-03T01:34:48.061Z,8.65
2022-09-03T01:37:31.400Z,14.93
2022-09-03T01:40:14.296Z,7.30
2022-09-03T01:42:49.602Z,19.83
2022-09-03T01:45:37.865Z,7.38
2022-09-03T01:48:31.883Z,9.95
2022-09-03T01:51:12.200Z,10.43
2022-09-03T01:53:42.172Z,13.40
2022-09-03T01:56:30.591Z,11.35
2022-09-03T01:59:07.495Z,12.68
2022-09-03T02:04:16.153Z,19.25
2022-09-03T02:06:47.558Z,14.32
2022-09-03T02:09:20.497Z,18.85
2022-09-03T02:11:54.971Z,11.85
2022-09-03T02:14:25.162Z,15.02
2022-09-03T02:16:55.794Z,14.93
2022-09-03T02:19:26.160Z,12.05
2022-09-03T02:21:56.909Z,8.80
2022-09-03T02:24:27.456Z,4.93
2022-09-03T02:26:57.573Z,9.82
2022-09-03T02:29:27.771Z,11.93
2022-09-03T02:31:58.088Z,6.25
2022-09-03T02:34:28.115Z,10.45
2022-09-03T02:36:58.299Z,22.48
2022-09-03T02:39:30.173Z,16.05
2022-09-03T02:42:00.846Z,8.05
2022-09-03T02:44:33.489Z,13.20
2022-09-03T02:47:07.790Z,8.77
2022-09-03T02:49:37.955Z,8.55
2022-09-03T02:52:10.801Z,8.05
2022-09-03T02:54:41.356Z,7.72
2022-09-03T02:57:12.253Z,8.30
2022-09-03T02:59:42.977Z,8.52
2022-09-03T03:02:13.640Z,7.65
2022-09-03T03:04:43.705Z,4.22
2022-09-03T03:07:13.771Z,4.00
2022-09-03T03:09:43.742Z,6.88
2022-09-03T03:12:13.880Z,4.65
2022-09-03T03:14:43.831Z,7.95
2022-09-03T03:17:13.877Z,8.50
2022-09-03T03:19:44.588Z,8.27
2022-09-03T03:22:14.546Z,12.07
2022-09-03T03:24:44.745Z,12.32
2022-09-03T03:27:16.159Z,31.88
2022-09-03T03:29:46.337Z,74.13
2022-09-03T03:32:16.343Z,42.08
2022-09-03T03:34:46.302Z,77.40
2022-09-03T03:37:16.432Z,70.10
2022-09-03T03:39:46.471Z,82.22
2022-09-03T03:42:18.429Z,103.30
2022-09-03T03:44:49.249Z,97.32
2022-09-03T03:47:19.560Z,96.45
2022-09-03T03:49:50.939Z,73.53
2022-09-03T03:52:23.892Z,93.78
2022-09-03T03:54:55.468Z,75.93
2022-09-03T03:57:25.731Z,68.95
2022-09-03T03:59:55.755Z,28.73
2022-09-03T04:02:25.852Z,14.80
2022-09-03T04:04:56.056Z,22.75
2022-09-03T04:07:26.194Z,17.02
2022-09-03T04:09:56.280Z,9.40
2022-09-03T04:12:26.391Z,11.65
2022-09-03T04:14:56.426Z,20.23
2022-09-03T04:17:26.695Z,25.95
2022-09-03T04:19:56.992Z,15.95
2022-09-03T04:22:27.119Z,16.50
2022-09-03T04:24:57.152Z,10.00
2022-09-03T04:27:27.306Z,11.15
2022-09-03T04:29:57.435Z,25.80
2022-09-03T04:32:45.689Z,19.67
2022-09-03T04:35:15.755Z,9.15
2022-09-03T04:37:45.976Z,8.70
2022-09-03T04:40:16.096Z,7.00
2022-09-03T04:42:46.380Z,15.15
2022-09-03T04:45:19.862Z,16.65
2022-09-03T04:47:58.498Z,7.82
2022-09-03T04:50:29.220Z,28.13
2022-09-03T04:53:07.144Z,21.23
2022-09-03T04:55:38.289Z,33.38
2022-09-03T04:58:11.305Z,28.60
2022-09-03T05:00:41.630Z,27.50
2022-09-03T05:03:11.685Z,24.48
2022-09-03T05:05:41.681Z,12.88
2022-09-03T05:08:12.538Z,11.57
2022-09-03T05:10:42.869Z,27.63
2022-09-03T05:13:13.292Z,17.60
2022-09-03T05:15:45.304Z,31.35
2022-09-03T05:18:15.753Z,39.10
2022-09-03T05:20:47.595Z,13.45
2022-09-03T05:23:18.049Z,23.33
2022-09-03T05:25:58.630Z,28.75
2022-09-03T05:28:32.082Z,22.58
2022-09-03T05:31:02.192Z,12.95
2022-09-03T05:33:32.152Z,34.35
2022-09-03T05:36:05.661Z,29.10
2022-09-03T05:38:36.171Z,10.23
2022-09-03T05:41:07.148Z,10.25
2022-09-03T05:43:37.370Z,15.02
2022-09-03T05:46:08.376Z,11.25
2022-09-03T05:48:38.927Z,33.50
2022-09-03T05:51:10.192Z,39.08
2022-09-03T05:53:41.047Z,8.05
2022-09-03T05:56:15.049Z,18.02
2022-09-03T05:58:46.550Z,13.02
2022-09-03T06:01:17.885Z,17.92
2022-09-03T06:03:48.615Z,26.95
2022-09-03T06:06:18.690Z,12.27
2022-09-03T06:08:48.752Z,17.35
2022-09-03T06:11:18.746Z,12.18
2022-09-03T06:13:48.943Z,13.73
2022-09-03T06:16:19.005Z,1.02
2022-09-03T06:19:00.026Z,6.65
2022-09-03T06:21:30.167Z,2.25
2022-09-03T06:24:00.498Z,2.03
2022-09-03T06:26:30.630Z,1.20
2022-09-03T06:29:01.225Z,1.52
2022-09-03T06:31:31.422Z,4.38
2022-09-03T06:34:04.183Z,0.98
2022-09-03T06:36:34.715Z,9.48
2022-09-03T06:39:04.750Z,1.10
2022-09-03T06:41:35.457Z,2.03
2022-09-03T06:44:06.736Z,2.70
2022-09-03T06:46:40.167Z,2.35
2022-09-03T06:49:10.738Z,2.47
2022-09-03T06:51:40.908Z,11.48
2022-09-03T06:54:11.766Z,17.88
2022-09-03T06:56:42.560Z,13.52
2022-09-03T06:59:13.609Z,8.43
2022-09-03T07:01:45.826Z,13.45
2022-09-03T07:04:22.324Z,136.35
2022-09-03T07:06:52.361Z,24.90
2022-09-03T07:09:22.298Z,25.23
2022-09-03T07:11:52.266Z,12.93
2022-09-03T07:14:22.501Z,23.20
2022-09-03T07:16:52.611Z,21.48
2022-09-03T07:19:22.569Z,19.13
2022-09-03T07:21:52.679Z,17.48
2022-09-03T07:24:23.266Z,47.40
2022-09-03T07:26:53.350Z,45.58
2022-09-03T07:29:23.423Z,7.45
2022-09-03T07:31:53.711Z,4.88
2022-09-03T07:34:28.361Z,7.82
2022-09-03T07:36:58.408Z,22.75
2022-09-03T07:39:28.474Z,12.65
2022-09-03T07:41:59.400Z,11.02
2022-09-03T07:44:29.905Z,6.45
2022-09-03T07:46:59.982Z,4.35
2022-09-03T07:49:30.005Z,8.07
2022-09-03T07:52:00.844Z,8.25
2022-09-03T07:54:31.017Z,7.30
2022-09-03T07:57:01.034Z,15.80
2022-09-03T07:59:32.607Z,16.13
2022-09-03T08:02:02.709Z,10.35
2022-09-03T08:04:34.919Z,12.93
2022-09-03T08:07:05.338Z,5.68
2022-09-03T08:09:35.266Z,4.70
2022-09-03T08:12:05.376Z,7.00
2022-09-03T08:14:35.398Z,9.70
2022-09-03T08:17:05.894Z,6.85
2022-09-03T08:19:36.032Z,2.63
2022-09-03T08:22:06.388Z,10.65
2022-09-03T08:24:37.039Z,3.50
2022-09-03T08:27:07.385Z,22.42
2022-09-03T08:29:38.067Z,26.83
2022-09-03T08:32:08.627Z,8.20
2022-09-03T08:34:38.661Z,9.43
2022-09-03T08:37:11.072Z,2.63
2022-09-03T08:39:41.214Z,4.00
2022-09-03T08:42:12.840Z,4.28
2022-09-03T08:44:48.111Z,8.23
2022-09-03T08:49:47.992Z,53.28
2022-09-03T08:52:24.280Z,3.03
2022-09-03T08:54:55.070Z,2.42
2022-09-03T08:57:25.325Z,1.50
2022-09-03T08:59:59.596Z,4.15
2022-09-03T09:02:50.309Z,5.95
2022-09-03T09:05:22.909Z,5.88
2022-09-03T09:08:15.069Z,2.50
2022-09-03T09:10:52.494Z,2.53
2022-09-03T09:13:26.802Z,1.98
2022-09-03T09:18:31.166Z,5.70
2022-09-03T09:21:09.985Z,3.53
2022-09-03T09:23:45.333Z,3.85
2022-09-03T09:26:24.350Z,3.83
2022-09-03T09:29:05.162Z,3.28
2022-09-03T09:31:46.266Z,2.10
2022-09-03T09:34:16.603Z,10.00
2022-09-03T09:36:51.124Z,7.07
2022-09-03T09:39:21.518Z,5.18
2022-09-03T09:42:00.878Z,2.70
2022-09-03T09:44:31.139Z,2.08
2022-09-03T09:47:27.506Z,3.83
2022-09-03T09:49:58.498Z,11.13
2022-09-03T09:52:30.373Z,3.70
2022-09-03T09:55:10.572Z,2.70
2022-09-03T09:57:41.478Z,2.85
2022-09-03T10:00:14.200Z,3.00
2022-09-03T10:02:57.711Z,3.13
2022-09-03T10:05:34.993Z,3.22
2022-09-03T10:08:08.540Z,4.03
2022-09-03T10:10:45.489Z,4.38
2022-09-03T10:13:22.597Z,1.48
2022-09-03T10:15:53.781Z,5.40
2022-09-03T10:18:42.523Z,2.03
2022-09-03T10:21:32.676Z,6.50
2022-09-03T10:24:07.643Z,10.00
2022-09-03T10:26:37.641Z,2.63
2022-09-03T10:29:07.871Z,6.15
2022-09-03T10:31:47.083Z,7.88
2022-09-03T10:34:17.214Z,2.22
2022-09-03T10:36:49.911Z,2.63
2022-09-03T10:39:30.809Z,5.45
2022-09-03T10:42:10.736Z,4.72
2022-09-03T10:45:02.939Z,7.72
2022-09-03T10:48:02.234Z,2.85
2022-09-03T10:50:44.564Z,4.03
2022-09-03T10:53:23.824Z,6.68
2022-09-03T10:55:59.258Z,2.17
2022-09-03T10:58:47.760Z,6.05
2022-09-03T11:01:26.857Z,8.38
2022-09-03T11:03:56.842Z,6.70
2022-09-03T11:06:27.326Z,3.97
2022-09-03T11:08:57.244Z,9.07
2022-09-03T11:11:34.029Z,6.97
2022-09-03T11:16:34.152Z,4.63
2022-09-03T11:19:05.830Z,3.38
2022-09-03T11:21:37.619Z,15.88
2022-09-03T11:24:26.035Z,8.18
2022-09-03T11:26:58.326Z,5.57
2022-09-03T11:29:41.647Z,8.10
2022-09-03T11:32:13.046Z,6.78
2022-09-03T11:34:52.878Z,9.18
2022-09-03T11:37:22.884Z,35.85
2022-09-03T11:39:59.187Z,13.73
2022-09-03T11:42:30.602Z,9.02
2022-09-03T11:45:15.229Z,10.90
2022-09-03T11:47:45.702Z,8.48
2022-09-03T11:50:22.292Z,6.13
2022-09-03T11:52:58.759Z,17.33
2022-09-03T11:57:59.767Z,12.57
2022-09-03T12:00:30.016Z,12.93
2022-09-03T12:03:00.710Z,5.95
2022-09-03T12:05:30.728Z,11.98
2022-09-03T12:08:26.818Z,5.65
2022-09-03T12:11:15.233Z,5.90
2022-09-03T12:13:45.216Z,11.10
2022-09-03T12:16:15.224Z,11.52
2022-09-03T12:18:45.323Z,11.15
2022-09-03T12:21:15.708Z,13.60
2022-09-03T12:23:51.587Z,14.60
2022-09-03T12:26:28.731Z,13.48
2022-09-03T12:28:59.430Z,10.95
2022-09-03T12:31:34.239Z,14.68
2022-09-03T12:34:04.992Z,11.40
2022-09-03T12:36:44.761Z,7.47
2022-09-03T12:40:04.257Z,7.03
2022-09-03T12:42:10.894Z,10.48
2022-09-03T12:44:42.312Z,10.25
2022-09-03T12:50:11.222Z,13.00
2022-09-03T12:52:41.505Z,22.65
2022-09-03T12:55:37.743Z,20.17
2022-09-03T12:58:14.171Z,10.40
2022-09-03T13:00:48.398Z,14.07
2022-09-03T13:03:18.398Z,13.00
2022-09-03T13:05:49.809Z,13.93
2022-09-03T13:08:30.579Z,6.75
2022-09-03T13:11:01.334Z,14.82
2022-09-03T13:13:39.065Z,5.15
2022-09-03T13:16:12.783Z,6.57
2022-09-03T13:18:48.574Z,7.28
2022-09-03T13:21:24.484Z,9.75
2022-09-03T13:24:20.674Z,9.40
2022-09-03T13:27:03.411Z,11.77
2022-09-03T13:29:41.299Z,10.95
2022-09-03T13:32:23.844Z,12.07
2022-09-03T13:35:00.516Z,4.82
2022-09-03T13:37:36.705Z,7.28
2022-09-03T13:40:17.262Z,10.93
2022-09-03T13:42:50.839Z,11.18
2022-09-03T13:45:43.597Z,8.43
2022-09-03T13:48:32.127Z,8.02
2022-09-03T13:51:05.060Z,4.57
2022-09-03T13:53:51.662Z,5.15
2022-09-03T13:56:39.867Z,5.45
2022-09-03T13:59:42.249Z,3.42
2022-09-03T14:02:12.405Z,3.97
2022-09-03T14:04:45.640Z,3.63
2022-09-03T14:07:17.138Z,5.25
2022-09-03T14:10:05.668Z,6.25
2022-09-03T14:12:47.970Z,2.53
2022-09-03T14:15:24.390Z,2.92
2022-09-03T14:18:03.515Z,7.45
2022-09-03T14:20:33.607Z,7.93
2022-09-03T14:23:06.359Z,6.90
2022-09-03T14:25:36.410Z,6.18
2022-09-03T14:28:16.308Z,3.15
2022-09-03T14:30:55.610Z,5.28
2022-09-03T14:33:35.369Z,7.93
2022-09-03T14:36:05.333Z,4.00
2022-09-03T14:38:35.415Z,3.15
2022-09-03T14:41:08.678Z,1.48
2022-09-03T14:43:44.556Z,2.97
2022-09-03T14:46:24.500Z,1.75
2022-09-03T14:48:57.746Z,0.60
2022-09-03T14:51:37.190Z,2.10
2022-09-03T14:54:25.850Z,2.05
2022-09-03T14:57:12.223Z,5.20
2022-09-03T14:59:49.918Z,0.32
2022-09-03T15:04:56.163Z,2.97
2022-09-03T15:07:45.050Z,0.60
2022-09-03T15:10:15.478Z,1.35
2022-09-03T15:12:55.590Z,0.70
2022-09-03T15:15:46.304Z,0.73
2022-09-03T15:18:19.691Z,0.82
2022-09-03T15:20:49.973Z,0.40
2022-09-03T15:23:20.117Z,0.30
2022-09-03T15:26:08.851Z,0.85
2022-09-03T15:28:58.262Z,1.75
2022-09-03T15:31:47.218Z,0.40
2022-09-03T15:34:35.681Z,0.63
2022-09-03T15:37:11.755Z,0.40
2022-09-03T15:39:42.907Z,1.33
2022-09-03T15:42:16.595Z,0.90
2022-09-03T15:44:55.270Z,0.65
2022-09-03T15:47:50.553Z,0.30
2022-09-03T15:51:00.061Z,0.90
2022-09-03T15:53:35.713Z,0.47
2022-09-03T15:56:06.794Z,0.63
2022-09-03T15:58:40.031Z,0.60
2022-09-03T16:01:14.565Z,0.52
2022-09-03T16:03:47.855Z,0.25
2022-09-03T16:06:24.153Z,0.43
2022-09-03T16:09:00.270Z,0.82
2022-09-03T16:11:33.010Z,0.77
2022-09-03T16:14:18.641Z,0.22
2022-09-03T16:16:53.598Z,0.20
2022-09-03T16:19:28.803Z,0.57
2022-09-03T16:21:58.794Z,0.38
2022-09-03T16:24:31.826Z,3.13
2022-09-03T16:27:14.160Z,0.10
2022-09-03T16:29:44.215Z,0.30
2022-09-03T16:32:46.599Z,1.20
2022-09-03T16:35:36.719Z,0.20
2022-09-03T16:38:29.040Z,0.17
2022-09-03T16:41:16.967Z,0.10
2022-09-03T16:43:48.817Z,0.40
2022-09-03T16:46:27.494Z,0.10
2022-09-03T16:49:23.116Z,0.00
2022-09-03T16:52:03.905Z,0.05
2022-09-03T16:54:33.985Z,0.00
2022-09-03T16:57:19.244Z,0.00
2022-09-03T16:59:52.301Z,1.02
2022-09-03T17:02:40.451Z,0.10
2022-09-03T17:05:15.142Z,0.00
2022-09-03T17:07:55.559Z,0.10
2022-09-03T17:10:44.062Z,0.30
2022-09-03T17:13:18.464Z,0.10
2022-09-03T17:15:55.771Z,0.25
2022-09-03T17:18:25.755Z,0.00
2022-09-03T17:20:55.805Z,0.20
2022-09-03T17:23:39.064Z,0.98
2022-09-03T17:26:22.164Z,0.00
2022-09-03T17:28:57.442Z,0.00
2022-09-03T17:31:30.641Z,0.50
2022-09-03T17:34:18.832Z,0.00
2022-09-03T17:36:56.064Z,0.00
2022-09-03T17:39:38.646Z,0.00
2022-09-03T17:42:29.077Z,0.15
2022-09-03T17:45:09.723Z,0.00
2022-09-03T17:47:52.634Z,0.35
2022-09-03T17:50:26.069Z,0.08
2022-09-03T17:53:06.380Z,0.20
2022-09-03T17:55:47.346Z,0.05
2022-09-03T17:58:26.949Z,0.10
2022-09-03T18:01:23.255Z,1.17
2022-09-03T18:04:05.156Z,0.13
2022-09-03T18:06:35.486Z,0.40
2022-09-03T18:09:05.555Z,2.30
2022-09-03T18:11:38.340Z,0.40
2022-09-03T18:14:19.782Z,0.10
2022-09-03T18:17:01.904Z,0.10
2022-09-03T18:20:02.720Z,2.22
2022-09-03T18:23:09.395Z,0.00
2022-09-03T18:25:57.736Z,1.67
2022-09-03T18:29:15.484Z,0.10
2022-09-03T18:32:04.697Z,0.20
2022-09-03T18:34:54.804Z,0.22
2022-09-03T18:37:44.670Z,0.10
2022-09-03T18:40:41.606Z,0.45
2022-09-03T18:43:42.273Z,0.10
2022-09-03T18:49:42.110Z,0.05
2022-09-03T18:52:45.589Z,5.47
2022-09-03T18:55:37.769Z,0.32
2022-09-03T18:58:26.189Z,0.35
2022-09-03T19:01:20.882Z,0.55
2022-09-03T19:04:12.463Z,1.20
2022-09-03T19:07:33.141Z,0.50
2022-09-03T19:10:24.309Z,0.85
2022-09-03T19:13:30.678Z,0.35
2022-09-03T19:19:38.250Z,0.52
2022-09-03T19:22:27.699Z,0.50
2022-09-03T19:25:25.423Z,1.13
2022-09-03T19:28:21.371Z,1.65
2022-09-03T19:31:32.504Z,0.57
2022-09-03T19:34:36.370Z,2.92
2022-09-03T19:37:33.017Z,1.60
2022-09-03T19:43:24.072Z,1.50
2022-09-03T19:46:12.515Z,1.00
2022-09-03T19:49:08.348Z,0.80
2022-09-03T19:52:00.287Z,1.70
2022-09-03T19:54:48.878Z,1.65
2022-09-03T19:57:37.118Z,1.33
2022-09-03T20:00:29.413Z,28.40
2022-09-03T20:03:22.129Z,1.45
2022-09-03T20:06:11.403Z,1.95
2022-09-03T20:08:59.984Z,3.65
2022-09-03T20:11:30.145Z,1.92
2022-09-03T20:14:15.589Z,1.52
2022-09-03T20:16:45.611Z,2.38
2022-09-03T20:19:24.791Z,2.53
2022-09-03T20:22:02.033Z,3.35
2022-09-03T20:24:41.155Z,3.08
2022-09-03T20:27:29.853Z,2.20
2022-09-03T20:30:07.039Z,3.55
2022-09-03T20:32:55.774Z,3.72
2022-09-03T20:35:38.775Z,4.03
2022-09-03T20:38:28.828Z,3.33
2022-09-03T20:41:17.186Z,2.40
2022-09-03T20:44:07.266Z,6.97
2022-09-03T20:46:37.286Z,2.45
2022-09-03T20:49:14.141Z,1.75
2022-09-03T20:51:49.346Z,3.22
2022-09-03T20:54:28.717Z,3.30
2022-09-03T20:57:06.862Z,3.85
2022-09-03T20:59:49.502Z,3.33
2022-09-03T21:02:23.217Z,2.10
2022-09-03T21:05:02.493Z,3.45
2022-09-03T21:07:44.655Z,3.75
2022-09-03T21:10:17.391Z,2.13
2022-09-03T21:12:56.529Z,3.47
2022-09-03T21:15:31.084Z,1.70
2022-09-03T21:18:21.161Z,2.55
2022-09-03T21:20:58.202Z,2.85
2022-09-03T21:26:04.524Z,3.33
2022-09-03T21:28:40.380Z,4.65
2022-09-03T21:31:15.189Z,6.28
2022-09-03T21:33:46.624Z,3.28
2022-09-03T21:36:18.318Z,2.15
2022-09-03T21:38:55.557Z,2.30
2022-09-03T21:41:42.838Z,2.92
2022-09-03T21:44:18.981Z,2.20
2022-09-03T21:46:56.445Z,4.97
2022-09-03T21:49:31.177Z,2.42
2022-09-03T21:52:03.219Z,4.30
2022-09-03T21:54:34.923Z,2.92
2022-09-03T21:57:04.963Z,5.00
2022-09-03T21:59:38.055Z,2.65
2022-09-03T22:02:17.860Z,5.72
2022-09-03T22:04:47.940Z,2.47
2022-09-03T22:07:36.351Z,3.30
2022-09-03T22:10:06.306Z,2.90
2022-09-03T22:12:39.222Z,5.75
2022-09-03T22:15:12.589Z,2.92
2022-09-03T22:17:48.002Z,3.08
2022-09-03T22:20:21.177Z,3.17
2022-09-03T22:22:57.862Z,3.25
2022-09-03T22:25:33.830Z,3.13
2022-09-03T22:28:13.964Z,3.93
2022-09-03T22:30:47.079Z,3.42
2022-09-03T22:33:20.214Z,2.28
2022-09-03T22:35:50.303Z,3.25
2022-09-03T22:38:33.211Z,4.10
2022-09-03T22:41:17.214Z,3.28
2022-09-03T22:43:50.228Z,3.10
2022-09-03T22:46:20.677Z,6.00
2022-09-03T22:49:20.124Z,3.20
2022-09-03T22:52:05.140Z,4.50
2022-09-03T22:54:44.094Z,4.00
2022-09-03T22:57:14.971Z,2.95
2022-09-03T22:59:58.263Z,3.78
2022-09-03T23:02:31.518Z,3.03
2022-09-03T23:05:07.779Z,3.33
2022-09-03T23:07:40.779Z,6.80
2022-09-03T23:10:22.605Z,3.13
2022-09-03T23:13:15.996Z,3.15
2022-09-03T23:15:45.972Z,3.85
2022-09-03T23:18:18.631Z,2.88
2022-09-03T23:20:50.322Z,5.60
2022-09-03T23:23:22.666Z,4.82
2022-09-03T23:25:55.008Z,11.93
2022-09-03T23:28:25.965Z,3.83
2022-09-03T23:30:57.030Z,3.08
2022-09-03T23:33:27.304Z,4.28
2022-09-03T23:36:03.491Z,3.00
2022-09-03T23:38:40.360Z,3.05
2022-09-03T23:41:10.371Z,2.10
2022-09-03T23:43:59.455Z,2.53
2022-09-03T23:46:50.564Z,2.97
2022-09-03T23:49:23.615Z,1.85
2022-09-03T23:51:55.392Z,3.65
2022-09-03T23:54:28.048Z,3.85
2022-09-03T23:57:16.560Z,4.03
